createdAt,value
2017-12-20T00:01:54.590Z,62.70
2017-12-20T00:04:22.444Z,65.80
2017-12-20T00:06:50.362Z,67.77
2017-12-20T00:09:18.230Z,69.30
2017-12-20T00:11:46.068Z,68.37
2017-12-20T00:14:13.913Z,64.37
2017-12-20T00:16:41.800Z,76.63
2017-12-20T00:19:09.703Z,73.80
2017-12-20T00:21:37.497Z,46.60
2017-12-20T00:24:05.387Z,58.10
2017-12-20T00:26:33.258Z,52.90
2017-12-20T00:29:01.089Z,63.30
2017-12-20T00:31:29.014Z,56.10
2017-12-20T00:33:56.789Z,56.43
2017-12-20T00:36:24.597Z,44.30
2017-12-20T00:38:52.412Z,52.87
2017-12-20T00:41:20.272Z,62.17
2017-12-20T00:43:48.154Z,60.73
2017-12-20T00:46:16.041Z,55.70
2017-12-20T00:48:43.936Z,55.83
2017-12-20T00:51:11.797Z,50.97
2017-12-20T00:53:39.629Z,52.00
2017-12-20T00:56:07.471Z,55.30
2017-12-20T00:58:35.300Z,54.87
2017-12-20T01:01:03.217Z,58.43
2017-12-20T01:03:31.069Z,51.10
2017-12-20T01:05:58.904Z,48.07
2017-12-20T01:08:26.773Z,47.20
2017-12-20T01:10:54.630Z,55.00
2017-12-20T01:13:22.497Z,59.90
2017-12-20T01:15:50.349Z,57.83
2017-12-20T01:18:18.216Z,58.63
2017-12-20T01:20:46.055Z,48.93
2017-12-20T01:23:13.968Z,53.63
2017-12-20T01:25:41.863Z,47.03
2017-12-20T01:28:09.724Z,42.00
2017-12-20T01:30:37.572Z,45.00
2017-12-20T01:33:05.483Z,44.73
2017-12-20T01:35:33.353Z,47.70
2017-12-20T01:38:01.248Z,44.63
2017-12-20T01:40:29.148Z,45.53
2017-12-20T01:42:57.018Z,41.23
2017-12-20T01:45:24.898Z,37.60
2017-12-20T01:47:52.750Z,36.57
2017-12-20T01:50:20.632Z,39.10
2017-12-20T01:52:48.492Z,42.37
2017-12-20T01:55:16.347Z,38.23
2017-12-20T01:57:44.172Z,35.63
2017-12-20T02:00:12.023Z,30.60
2017-12-20T02:02:39.864Z,37.10
2017-12-20T02:05:07.741Z,38.90
2017-12-20T02:07:35.645Z,34.93
2017-12-20T02:10:03.529Z,26.47
2017-12-20T02:12:31.372Z,32.03
2017-12-20T02:14:59.235Z,30.47
2017-12-20T02:17:27.060Z,37.77
2017-12-20T02:19:54.920Z,32.30
2017-12-20T02:22:22.803Z,28.93
2017-12-20T02:24:50.696Z,30.70
2017-12-20T02:27:18.583Z,27.90
2017-12-20T02:29:46.452Z,32.23
2017-12-20T02:32:14.273Z,25.00
2017-12-20T02:34:42.139Z,27.50
2017-12-20T02:37:09.988Z,30.07
2017-12-20T02:39:37.827Z,27.60
2017-12-20T02:42:07.685Z,26.57
2017-12-20T02:44:35.551Z,30.07
2017-12-20T02:47:03.416Z,24.43
2017-12-20T02:49:31.283Z,27.60
2017-12-20T02:51:59.297Z,23.57
2017-12-20T02:54:27.137Z,25.63
2017-12-20T02:56:54.984Z,26.00
2017-12-20T02:59:22.830Z,29.17
2017-12-20T03:01:50.721Z,28.87
2017-12-20T03:04:18.580Z,23.70
2017-12-20T03:06:46.449Z,27.87
2017-12-20T03:09:14.296Z,37.47
2017-12-20T03:11:42.132Z,37.57
2017-12-20T03:14:10.002Z,30.37
2017-12-20T03:16:37.863Z,37.43
2017-12-20T03:19:05.755Z,39.03
2017-12-20T03:21:33.634Z,45.70
2017-12-20T03:24:01.477Z,42.70
2017-12-20T03:26:29.341Z,43.00
2017-12-20T03:28:57.152Z,47.13
2017-12-20T03:31:25.032Z,49.63
2017-12-20T03:33:52.852Z,43.70
2017-12-20T03:36:20.718Z,46.77
2017-12-20T03:38:48.590Z,44.53
2017-12-20T03:41:16.450Z,43.40
2017-12-20T03:43:44.317Z,56.83
2017-12-20T03:46:12.164Z,49.40
2017-12-20T03:48:40.043Z,43.10
2017-12-20T03:51:07.904Z,43.00
2017-12-20T03:53:35.763Z,45.63
2017-12-20T03:56:03.591Z,54.60
2017-12-20T03:58:31.445Z,45.90
2017-12-20T04:00:59.355Z,38.10
2017-12-20T04:03:27.240Z,40.90
2017-12-20T04:05:55.072Z,37.10
2017-12-20T04:08:22.932Z,36.67
2017-12-20T04:10:50.808Z,35.60
2017-12-20T04:13:18.664Z,41.30
2017-12-20T04:15:47.476Z,44.37
2017-12-20T04:18:15.347Z,36.63
2017-12-20T04:20:43.204Z,33.37
2017-12-20T04:23:11.071Z,34.43
2017-12-20T04:25:38.940Z,32.57
2017-12-20T04:28:06.831Z,34.53
2017-12-20T04:30:34.712Z,33.97
2017-12-20T04:33:02.583Z,30.00
2017-12-20T04:35:30.445Z,25.50
2017-12-20T04:37:58.306Z,28.00
2017-12-20T04:40:26.135Z,30.33
2017-12-20T04:42:54.023Z,31.70
2017-12-20T04:45:21.868Z,29.00
2017-12-20T04:47:49.748Z,30.80
2017-12-20T04:50:17.598Z,33.47
2017-12-20T04:52:45.510Z,31.47
2017-12-20T04:55:13.359Z,38.47
2017-12-20T04:57:41.198Z,30.20
2017-12-20T05:00:09.094Z,35.70
2017-12-20T05:02:36.973Z,38.83
2017-12-20T05:05:04.816Z,47.03
2017-12-20T05:07:32.692Z,29.40
2017-12-20T05:10:00.548Z,37.70
2017-12-20T05:12:28.406Z,45.73
2017-12-20T05:14:56.273Z,33.80
2017-12-20T05:17:24.124Z,39.00
2017-12-20T05:19:51.957Z,36.73
2017-12-20T05:22:19.832Z,38.77
2017-12-20T05:24:47.724Z,35.40
2017-12-20T05:27:15.614Z,37.43
2017-12-20T05:29:43.482Z,34.17
2017-12-20T05:32:11.324Z,40.73
2017-12-20T05:34:39.192Z,32.77
2017-12-20T05:37:07.024Z,38.50
2017-12-20T05:39:34.873Z,50.17
2017-12-20T05:42:02.799Z,61.30
2017-12-20T05:44:30.641Z,71.60
2017-12-20T05:46:58.466Z,77.10
2017-12-20T05:49:26.327Z,67.73
2017-12-20T05:51:54.159Z,57.70
2017-12-20T05:54:22.055Z,56.97
2017-12-20T05:56:49.909Z,61.73
2017-12-20T05:59:17.761Z,51.53
2017-12-20T06:01:45.612Z,58.73
2017-12-20T06:04:13.436Z,52.30
2017-12-20T06:06:41.301Z,56.43
2017-12-20T06:09:09.268Z,40.70
2017-12-20T06:11:37.124Z,36.13
2017-12-20T06:14:04.990Z,49.13
2017-12-20T06:16:32.836Z,43.40
2017-12-20T06:19:00.664Z,42.80
2017-12-20T06:21:28.526Z,47.87
2017-12-20T06:23:56.400Z,42.93
2017-12-20T06:26:24.234Z,38.23
2017-12-20T06:28:52.089Z,35.50
2017-12-20T06:31:19.960Z,43.57
2017-12-20T06:33:47.825Z,45.07
2017-12-20T06:36:15.705Z,49.13
2017-12-20T06:38:43.552Z,40.30
2017-12-20T06:41:11.468Z,42.70
2017-12-20T06:43:39.313Z,49.80
2017-12-20T06:46:07.172Z,58.30
2017-12-20T06:48:34.988Z,61.40
2017-12-20T06:51:02.860Z,58.30
2017-12-20T06:53:30.687Z,50.47
2017-12-20T06:55:58.504Z,57.67
2017-12-20T06:58:26.342Z,60.27
2017-12-20T07:00:54.203Z,50.20
2017-12-20T07:03:22.104Z,62.90
2017-12-20T07:05:49.996Z,53.77
2017-12-20T07:08:17.844Z,57.03
2017-12-20T07:10:45.732Z,54.60
2017-12-20T07:13:19.978Z,53.03
2017-12-20T07:15:47.826Z,47.50
2017-12-20T07:18:15.650Z,52.27
2017-12-20T07:20:43.492Z,52.53
2017-12-20T07:23:11.349Z,47.10
2017-12-20T07:25:39.213Z,48.27
2017-12-20T07:28:07.076Z,41.23
2017-12-20T07:30:34.916Z,26.23
2017-12-20T07:33:02.786Z,35.07
2017-12-20T07:35:31.212Z,35.37
2017-12-20T07:37:59.071Z,30.17
2017-12-20T07:40:26.930Z,25.60
2017-12-20T07:42:54.837Z,28.33
2017-12-20T07:45:22.694Z,28.50
2017-12-20T07:47:50.569Z,26.30
2017-12-20T07:50:18.429Z,26.57
2017-12-20T07:52:46.292Z,29.17
2017-12-20T07:55:14.129Z,24.77
2017-12-20T07:57:41.981Z,28.57
2017-12-20T08:00:09.850Z,28.17
2017-12-20T08:02:37.718Z,23.90
2017-12-20T08:05:05.557Z,28.07
2017-12-20T08:07:33.446Z,27.83
2017-12-20T08:10:01.254Z,23.33
2017-12-20T08:12:29.124Z,27.27
2017-12-20T08:14:57.090Z,26.27
2017-12-20T08:17:24.965Z,25.63
2017-12-20T08:19:52.824Z,35.33
2017-12-20T08:22:20.711Z,23.83
2017-12-20T08:24:48.560Z,24.50
2017-12-20T08:27:16.428Z,28.53
2017-12-20T08:29:44.276Z,29.70
2017-12-20T08:32:12.160Z,33.97
2017-12-20T08:34:40.013Z,27.93
2017-12-20T08:37:07.884Z,26.63
2017-12-20T08:39:35.764Z,26.30
2017-12-20T08:42:03.616Z,22.53
2017-12-20T08:44:31.505Z,24.93
2017-12-20T08:46:59.380Z,23.87
2017-12-20T08:49:27.240Z,21.20
2017-12-20T08:51:55.109Z,27.47
2017-12-20T08:54:23.001Z,35.37
2017-12-20T08:56:50.916Z,26.27
2017-12-20T08:59:18.805Z,30.00
2017-12-20T09:01:46.676Z,31.33
2017-12-20T09:04:14.516Z,34.83
2017-12-20T09:06:42.369Z,26.30
2017-12-20T09:09:10.204Z,30.13
2017-12-20T09:11:38.459Z,29.70
2017-12-20T09:14:07.013Z,31.40
2017-12-20T09:16:36.343Z,32.40
2017-12-20T09:19:04.211Z,28.07
2017-12-20T09:21:32.061Z,30.27
2017-12-20T09:23:59.897Z,32.73
2017-12-20T09:26:27.773Z,21.90
2017-12-20T09:28:55.651Z,35.70
2017-12-20T09:31:23.496Z,33.67
2017-12-20T09:33:51.477Z,34.10
2017-12-20T09:36:19.312Z,35.50
2017-12-20T09:38:47.162Z,40.07
2017-12-20T09:41:15.071Z,30.80
2017-12-20T09:43:42.929Z,30.17
2017-12-20T09:46:10.791Z,31.00
2017-12-20T09:48:38.648Z,30.37
2017-12-20T09:51:06.479Z,29.43
2017-12-20T09:53:34.318Z,28.00
2017-12-20T09:56:02.184Z,31.47
2017-12-20T09:58:30.064Z,29.10
2017-12-20T10:00:57.897Z,28.37
2017-12-20T10:03:25.742Z,26.63
2017-12-20T10:05:53.584Z,23.90
2017-12-20T10:08:21.432Z,35.47
2017-12-20T10:10:49.284Z,23.77
2017-12-20T10:13:17.168Z,26.90
2017-12-20T10:15:45.020Z,26.67
2017-12-20T10:18:12.877Z,22.87
2017-12-20T10:20:40.790Z,29.13
2017-12-20T10:23:08.631Z,33.17
2017-12-20T10:25:36.481Z,25.97
2017-12-20T10:28:04.336Z,25.07
2017-12-20T10:30:32.184Z,28.30
2017-12-20T10:33:00.189Z,25.60
2017-12-20T10:35:28.067Z,27.33
2017-12-20T10:37:55.937Z,29.93
2017-12-20T10:40:23.832Z,22.90
2017-12-20T10:42:51.704Z,25.20
2017-12-20T10:45:19.575Z,30.33
2017-12-20T10:47:47.442Z,24.10
2017-12-20T10:50:15.306Z,26.00
2017-12-20T10:52:43.168Z,21.20
2017-12-20T10:55:11.044Z,23.70
2017-12-20T10:57:38.912Z,26.20
2017-12-20T11:00:06.780Z,24.17
2017-12-20T11:02:34.636Z,37.10
2017-12-20T11:05:02.489Z,25.40
2017-12-20T11:07:30.338Z,24.47
2017-12-20T11:09:58.188Z,27.67
2017-12-20T11:12:26.028Z,28.57
2017-12-20T11:14:53.866Z,29.50
2017-12-20T11:17:21.716Z,29.20
2017-12-20T11:19:49.595Z,34.40
2017-12-20T11:22:17.492Z,24.07
2017-12-20T11:24:45.316Z,25.90
2017-12-20T11:27:13.181Z,28.80
2017-12-20T11:29:41.087Z,25.60
2017-12-20T11:32:08.957Z,32.67
2017-12-20T11:34:36.826Z,34.70
2017-12-20T11:37:04.691Z,34.17
2017-12-20T11:39:32.557Z,30.90
2017-12-20T11:42:00.487Z,35.93
2017-12-20T11:44:28.388Z,33.13
2017-12-20T11:46:56.323Z,31.23
2017-12-20T11:49:24.183Z,27.63
2017-12-20T11:51:52.060Z,32.47
2017-12-20T11:54:19.909Z,36.53
2017-12-20T11:56:47.790Z,28.20
2017-12-20T11:59:15.770Z,32.93
2017-12-20T12:01:43.654Z,37.57
2017-12-20T12:04:11.521Z,38.30
2017-12-20T12:06:39.418Z,37.87
2017-12-20T12:09:07.257Z,39.10
2017-12-20T12:11:35.133Z,38.67
2017-12-20T12:14:02.986Z,38.57
2017-12-20T12:16:30.855Z,36.60
2017-12-20T12:18:58.713Z,36.73
2017-12-20T12:21:26.576Z,41.60
2017-12-20T12:23:54.444Z,40.03
2017-12-20T12:26:22.310Z,36.50
2017-12-20T12:28:50.155Z,41.17
2017-12-20T12:31:17.998Z,36.10
2017-12-20T12:33:45.925Z,39.63
2017-12-20T12:36:13.780Z,45.37
2017-12-20T12:38:41.648Z,39.63
2017-12-20T12:41:09.509Z,47.30
2017-12-20T12:43:37.373Z,51.37
2017-12-20T12:46:05.269Z,48.33
2017-12-20T12:48:33.321Z,46.40
2017-12-20T12:51:01.286Z,43.33
2017-12-20T12:53:29.186Z,48.53
2017-12-20T12:55:57.101Z,53.07
2017-12-20T12:58:24.988Z,47.07
2017-12-20T13:00:52.906Z,50.60
2017-12-20T13:03:20.773Z,50.07
2017-12-20T13:05:48.651Z,50.73
2017-12-20T13:08:16.588Z,43.83
2017-12-20T13:10:44.452Z,52.83
2017-12-20T13:13:12.291Z,50.60
2017-12-20T13:15:40.122Z,43.17
2017-12-20T13:18:07.978Z,47.53
2017-12-20T13:20:35.853Z,48.90
2017-12-20T13:23:03.699Z,35.37
2017-12-20T13:25:31.640Z,40.57
2017-12-20T13:27:59.468Z,43.63
2017-12-20T13:30:27.318Z,45.90
2017-12-20T13:32:55.161Z,43.77
2017-12-20T13:35:23.012Z,40.63
2017-12-20T13:37:50.907Z,37.70
2017-12-20T13:40:18.801Z,38.60
2017-12-20T13:42:46.695Z,39.20
2017-12-20T13:45:14.579Z,43.80
2017-12-20T13:47:42.459Z,40.07
2017-12-20T13:50:10.326Z,53.97
2017-12-20T13:52:38.290Z,49.50
2017-12-20T13:55:06.169Z,45.70
2017-12-20T13:57:34.034Z,48.40
2017-12-20T14:00:01.914Z,39.77
2017-12-20T14:02:29.757Z,48.63
2017-12-20T14:04:57.617Z,44.20
2017-12-20T14:07:25.484Z,47.17
2017-12-20T14:09:53.367Z,48.23
2017-12-20T14:12:21.220Z,55.60
2017-12-20T14:14:49.081Z,43.90
2017-12-20T14:17:16.986Z,53.50
2017-12-20T14:19:44.838Z,57.77
2017-12-20T14:22:12.689Z,52.57
2017-12-20T14:24:40.544Z,59.03
2017-12-20T14:27:08.413Z,57.73
2017-12-20T14:29:36.297Z,55.83
2017-12-20T14:32:04.187Z,59.40
2017-12-20T14:34:32.057Z,58.40
2017-12-20T14:36:59.921Z,64.37
2017-12-20T14:39:27.782Z,53.10
2017-12-20T14:41:55.678Z,60.50
2017-12-20T14:44:23.558Z,64.83
2017-12-20T14:46:51.425Z,76.97
2017-12-20T14:49:19.273Z,59.27
2017-12-20T14:51:47.117Z,68.90
2017-12-20T14:54:15.006Z,57.53
2017-12-20T14:56:42.872Z,65.50
2017-12-20T14:59:10.743Z,53.83
2017-12-20T15:01:38.601Z,55.17
2017-12-20T15:04:06.460Z,52.33
2017-12-20T15:06:34.332Z,62.93
2017-12-20T15:09:02.202Z,56.23
2017-12-20T15:11:30.074Z,55.00
2017-12-20T15:13:57.933Z,60.23
2017-12-20T15:16:25.797Z,59.77
2017-12-20T15:18:53.665Z,48.57
2017-12-20T15:21:21.516Z,52.87
2017-12-20T15:23:49.365Z,53.27
2017-12-20T15:26:17.221Z,50.03
2017-12-20T15:28:45.097Z,43.23
2017-12-20T15:31:12.957Z,46.77
2017-12-20T15:33:41.034Z,42.77
2017-12-20T15:36:08.930Z,55.70
2017-12-20T15:38:36.809Z,50.47
2017-12-20T15:41:04.656Z,47.07
2017-12-20T15:43:32.540Z,43.93
2017-12-20T15:46:00.405Z,44.20
2017-12-20T15:48:28.908Z,36.87
2017-12-20T15:50:56.737Z,47.07
2017-12-20T15:53:24.581Z,47.03
2017-12-20T15:55:52.451Z,59.80
2017-12-20T15:58:20.292Z,41.77
2017-12-20T16:00:48.159Z,50.10
2017-12-20T16:03:16.064Z,49.43
2017-12-20T16:05:44.937Z,41.40
2017-12-20T16:08:12.920Z,48.10
2017-12-20T16:10:40.852Z,40.07
2017-12-20T16:13:08.706Z,41.87
2017-12-20T16:15:36.556Z,54.77
2017-12-20T16:18:04.448Z,41.03
2017-12-20T16:20:32.293Z,44.33
2017-12-20T16:23:00.140Z,39.97
2017-12-20T16:25:28.010Z,45.43
2017-12-20T16:27:56.095Z,45.77
2017-12-20T16:30:23.936Z,42.37
2017-12-20T16:32:51.814Z,47.17
2017-12-20T16:35:19.729Z,44.63
2017-12-20T16:37:47.571Z,43.33
2017-12-20T16:40:15.431Z,46.37
2017-12-20T16:42:43.314Z,39.80
2017-12-20T16:45:11.197Z,44.73
2017-12-20T16:47:39.054Z,52.50
2017-12-20T16:50:06.929Z,50.93
2017-12-20T16:52:34.791Z,38.07
2017-12-20T16:55:02.642Z,40.07
2017-12-20T16:57:30.466Z,58.90
2017-12-20T16:59:58.350Z,48.57
2017-12-20T17:02:26.197Z,56.93
2017-12-20T17:04:54.039Z,91.53
2017-12-20T17:07:21.936Z,91.00
2017-12-20T17:09:49.773Z,71.20
2017-12-20T17:12:17.702Z,67.57
2017-12-20T17:14:45.601Z,54.80
2017-12-20T17:17:13.493Z,53.73
2017-12-20T17:19:41.356Z,50.87
2017-12-20T17:22:09.249Z,45.53
2017-12-20T17:24:37.128Z,50.43
2017-12-20T17:27:05.001Z,51.47
2017-12-20T17:29:32.901Z,51.80
2017-12-20T17:32:00.768Z,50.53
2017-12-20T17:34:28.621Z,52.83
2017-12-20T17:36:56.597Z,51.30
2017-12-20T17:39:24.436Z,48.40
2017-12-20T17:41:52.345Z,51.73
2017-12-20T17:44:20.201Z,56.97
2017-12-20T17:46:48.067Z,48.13
2017-12-20T17:49:17.803Z,48.97
2017-12-20T17:51:45.704Z,58.93
2017-12-20T17:54:13.577Z,54.67
2017-12-20T17:56:42.364Z,44.13
2017-12-20T17:59:10.289Z,54.73
2017-12-20T18:01:38.221Z,60.30
2017-12-20T18:04:06.107Z,51.40
2017-12-20T18:06:33.961Z,62.60
2017-12-20T18:09:01.844Z,47.43
2017-12-20T18:11:29.701Z,51.47
2017-12-20T18:13:57.588Z,66.67
2017-12-20T18:16:25.442Z,56.45
2017-12-20T18:18:53.309Z,62.47
2017-12-20T18:21:21.187Z,54.77
2017-12-20T18:23:49.043Z,52.03
2017-12-20T18:26:16.890Z,68.37
2017-12-20T18:28:44.834Z,75.17
2017-12-20T18:31:13.720Z,78.13
2017-12-20T18:33:41.943Z,85.93
2017-12-20T18:36:09.808Z,75.37
2017-12-20T18:38:37.745Z,84.70
2017-12-20T18:41:05.651Z,82.20
2017-12-20T18:43:33.498Z,82.20
2017-12-20T18:46:01.408Z,91.93
2017-12-20T18:48:29.276Z,97.97
2017-12-20T18:50:57.195Z,92.37
2017-12-20T18:53:25.151Z,89.37
2017-12-20T18:55:53.023Z,104.30
2017-12-20T18:58:20.925Z,92.07
2017-12-20T19:00:48.790Z,86.93
2017-12-20T19:03:16.636Z,93.80
2017-12-20T19:05:44.495Z,107.97
2017-12-20T19:11:18.271Z,84.87
2017-12-20T19:13:46.442Z,100.00
2017-12-20T19:16:14.353Z,94.33
2017-12-20T19:18:42.245Z,92.87
2017-12-20T19:21:10.096Z,101.73
2017-12-20T19:23:38.012Z,88.83
2017-12-20T19:26:05.909Z,96.77
2017-12-20T19:28:33.764Z,85.97
2017-12-20T19:31:01.632Z,85.07
2017-12-20T19:33:29.575Z,77.17
2017-12-20T19:35:57.412Z,68.00
2017-12-20T19:41:17.158Z,73.23
2017-12-20T19:43:45.031Z,59.83
2017-12-20T19:46:12.953Z,59.17
2017-12-20T19:54:40.473Z,63.20
2017-12-20T19:57:08.776Z,52.37
2017-12-20T19:59:36.890Z,67.27
2017-12-20T20:02:05.114Z,77.17
2017-12-20T20:04:33.206Z,63.07
2017-12-20T20:07:01.369Z,63.07
2017-12-20T20:09:33.030Z,61.83
2017-12-20T20:12:00.942Z,70.53
2017-12-20T20:14:28.848Z,44.87
2017-12-20T20:20:01.342Z,64.77
2017-12-20T20:22:29.207Z,63.43
2017-12-20T20:25:14.175Z,49.33
2017-12-20T20:27:50.828Z,45.37
2017-12-20T20:30:18.691Z,53.13
2017-12-20T20:32:46.576Z,60.47
2017-12-20T20:35:14.459Z,76.03
2017-12-20T20:37:43.432Z,56.37
2017-12-20T20:40:11.367Z,56.50
2017-12-20T20:42:39.487Z,62.50
2017-12-20T20:45:07.439Z,53.40
2017-12-20T20:47:35.322Z,58.33
2017-12-20T20:50:03.173Z,65.90
2017-12-20T20:52:31.055Z,56.43
2017-12-20T20:54:58.960Z,64.00
2017-12-20T21:00:15.408Z,58.93
2017-12-20T21:02:43.275Z,70.17
2017-12-20T21:05:11.141Z,72.67
2017-12-20T21:10:44.529Z,80.07
2017-12-20T21:13:12.398Z,53.50
2017-12-20T21:15:40.260Z,79.03
2017-12-20T21:18:08.129Z,62.00
2017-12-20T21:20:40.195Z,83.90
2017-12-20T21:23:08.057Z,53.37
2017-12-20T21:25:35.944Z,63.50
2017-12-20T21:28:03.942Z,63.90
2017-12-20T21:30:31.844Z,80.23
2017-12-20T21:32:59.810Z,76.73
2017-12-20T21:35:27.678Z,58.90
2017-12-20T21:37:55.549Z,66.37
2017-12-20T21:40:23.420Z,45.90
2017-12-20T21:42:51.260Z,71.73
2017-12-20T21:45:19.115Z,67.27
2017-12-20T21:47:46.960Z,54.53
2017-12-20T21:50:14.788Z,67.70
2017-12-20T21:55:36.889Z,65.57
2017-12-20T21:58:20.150Z,90.03
2017-12-20T22:00:47.997Z,71.83
2017-12-20T22:03:15.844Z,73.80
2017-12-20T22:05:45.817Z,74.10
2017-12-20T22:08:13.917Z,79.83
2017-12-20T22:10:41.786Z,68.60
2017-12-20T22:13:09.641Z,85.10
2017-12-20T22:15:37.486Z,82.00
2017-12-20T22:18:05.368Z,77.30
2017-12-20T22:20:33.237Z,75.23
2017-12-20T22:23:01.186Z,65.90
2017-12-20T22:25:29.048Z,78.70
2017-12-20T22:27:56.951Z,78.17
2017-12-20T22:30:24.821Z,69.03
2017-12-20T22:32:52.699Z,74.67
2017-12-20T22:35:20.604Z,61.90
2017-12-20T22:37:48.518Z,43.50
2017-12-20T22:40:16.487Z,56.13
2017-12-20T22:42:44.354Z,52.90
2017-12-20T22:45:12.226Z,67.43
2017-12-20T22:47:40.081Z,76.43
2017-12-20T22:50:07.950Z,61.90
2017-12-20T22:52:35.816Z,56.47
2017-12-20T22:55:03.683Z,48.43
2017-12-20T23:00:36.511Z,62.10
2017-12-20T23:03:04.350Z,80.43
2017-12-20T23:05:32.218Z,93.57
2017-12-20T23:11:04.812Z,84.10
2017-12-20T23:13:33.604Z,82.47
2017-12-20T23:16:01.469Z,67.57
2017-12-20T23:18:35.687Z,85.40
2017-12-20T23:21:03.577Z,75.17
2017-12-20T23:23:31.441Z,87.97
2017-12-20T23:25:59.303Z,81.73
2017-12-20T23:28:33.522Z,76.80
2017-12-20T23:31:01.464Z,78.63
2017-12-20T23:33:29.321Z,72.10
2017-12-20T23:35:57.160Z,72.43
2017-12-20T23:38:25.013Z,63.87
2017-12-20T23:40:52.888Z,68.33
2017-12-20T23:43:20.804Z,66.77
2017-12-20T23:45:48.675Z,71.10
2017-12-20T23:48:22.887Z,58.67
2017-12-20T23:50:50.758Z,67.03
2017-12-20T23:53:18.632Z,69.03
2017-12-20T23:55:46.544Z,68.90
2017-12-20T23:58:14.472Z,59.40
